createdAt,value
2022-10-27T00:01:56.012Z,127.97
2022-10-27T00:06:52.344Z,130.35
2022-10-27T00:16:53.969Z,132.00
2022-10-27T00:21:51.672Z,130.05
2022-10-27T00:26:47.887Z,125.07
2022-10-27T00:31:44.073Z,125.53
2022-10-27T00:36:40.336Z,127.57
2022-10-27T00:41:37.872Z,126.30
2022-10-27T00:46:36.475Z,123.13
2022-10-27T00:51:32.858Z,126.45
2022-10-27T00:56:29.163Z,124.72
2022-10-27T01:01:26.298Z,127.82
2022-10-27T01:06:23.608Z,121.90
2022-10-27T01:11:20.003Z,126.82
2022-10-27T01:16:26.834Z,122.70
2022-10-27T01:21:26.094Z,118.93
2022-10-27T01:26:40.848Z,117.35
2022-10-27T01:31:45.801Z,118.38
2022-10-27T01:36:44.806Z,119.63
2022-10-27T01:41:43.505Z,121.13
2022-10-27T01:46:40.086Z,118.57
2022-10-27T01:51:36.299Z,112.53
2022-10-27T01:56:41.748Z,109.00
2022-10-27T02:01:46.982Z,111.45
2022-10-27T02:06:56.619Z,112.15
2022-10-27T02:11:54.342Z,110.53
2022-10-27T02:16:52.870Z,112.35
2022-10-27T02:21:50.930Z,114.07
2022-10-27T02:26:52.828Z,113.40
2022-10-27T02:31:50.652Z,111.93
2022-10-27T02:36:47.303Z,112.93
2022-10-27T02:41:43.529Z,115.80
2022-10-27T02:46:41.022Z,114.10
2022-10-27T02:51:38.735Z,119.95
2022-10-27T02:56:34.934Z,121.43
2022-10-27T03:01:31.244Z,118.40
2022-10-27T03:06:27.487Z,117.80
2022-10-27T03:11:23.971Z,119.32
2022-10-27T03:16:20.211Z,116.22
2022-10-27T03:21:16.473Z,121.70
2022-10-27T03:26:12.791Z,116.00
2022-10-27T03:31:09.114Z,116.32
2022-10-27T03:36:05.757Z,118.28
2022-10-27T03:41:01.957Z,114.22
2022-10-27T03:46:00.884Z,118.18
2022-10-27T03:50:57.396Z,112.28
2022-10-27T03:55:53.602Z,105.82
2022-10-27T04:00:49.986Z,102.75
2022-10-27T04:05:49.882Z,104.07
2022-10-27T04:10:46.116Z,102.03
2022-10-27T04:15:42.424Z,103.50
2022-10-27T04:20:38.662Z,103.78
2022-10-27T04:25:34.991Z,86.63
2022-10-27T04:30:31.371Z,89.82
2022-10-27T04:35:27.783Z,90.47
2022-10-27T04:40:24.200Z,91.40
2022-10-27T04:45:20.429Z,94.40
2022-10-27T04:50:16.850Z,99.25
2022-10-27T04:55:13.047Z,99.80
2022-10-27T05:00:09.762Z,103.55
2022-10-27T05:05:06.118Z,104.65
2022-10-27T05:10:02.646Z,106.75
2022-10-27T05:14:59.132Z,103.63
2022-10-27T05:19:55.427Z,102.22
2022-10-27T05:24:52.010Z,108.32
2022-10-27T05:29:48.235Z,108.05
2022-10-27T05:34:44.436Z,114.10
2022-10-27T05:39:40.718Z,117.25
2022-10-27T05:44:36.897Z,118.13
2022-10-27T05:49:33.142Z,118.03
2022-10-27T05:54:29.421Z,117.78
2022-10-27T05:59:25.617Z,117.28
2022-10-27T06:04:21.939Z,118.63
2022-10-27T06:09:18.110Z,114.28
2022-10-27T06:14:14.320Z,117.88
2022-10-27T06:19:10.822Z,118.50
2022-10-27T06:24:07.087Z,119.88
2022-10-27T06:29:03.431Z,120.72
2022-10-27T06:34:00.025Z,113.78
2022-10-27T06:38:56.269Z,109.10
2022-10-27T06:43:52.563Z,110.95
2022-10-27T06:48:48.825Z,106.78
2022-10-27T06:53:45.065Z,110.18
2022-10-27T06:58:41.365Z,108.93
2022-10-27T07:03:37.918Z,109.50
2022-10-27T07:08:34.223Z,104.18
2022-10-27T07:13:30.531Z,98.05
2022-10-27T07:18:29.907Z,91.15
2022-10-27T07:23:26.136Z,94.88
2022-10-27T07:28:22.376Z,91.63
2022-10-27T07:33:18.587Z,93.10
2022-10-27T07:38:14.860Z,95.50
2022-10-27T07:43:11.547Z,96.68
2022-10-27T07:48:11.100Z,98.97
2022-10-27T07:53:07.383Z,100.85
2022-10-27T07:58:13.703Z,102.90
2022-10-27T08:03:15.148Z,100.93
2022-10-27T08:08:11.417Z,100.95
2022-10-27T08:13:08.380Z,101.88
2022-10-27T08:18:04.955Z,108.45
2022-10-27T08:23:02.607Z,109.15
2022-10-27T08:27:59.578Z,110.15
2022-10-27T08:32:57.108Z,114.68
2022-10-27T08:37:59.259Z,104.43
2022-10-27T08:43:04.597Z,110.63
2022-10-27T08:48:01.320Z,117.25
2022-10-27T08:53:03.942Z,124.03
2022-10-27T08:58:19.543Z,125.70
2022-10-27T09:03:29.992Z,121.38
2022-10-27T09:08:31.783Z,128.63
2022-10-27T09:13:30.966Z,127.30
2022-10-27T09:18:33.360Z,130.43
2022-10-27T09:23:37.869Z,131.43
2022-10-27T09:28:39.931Z,133.73
2022-10-27T09:33:36.479Z,134.48
2022-10-27T09:38:32.826Z,135.23
2022-10-27T09:43:29.086Z,138.40
2022-10-27T09:48:26.159Z,129.48
2022-10-27T09:53:39.760Z,134.95
2022-10-27T09:59:02.714Z,131.52
2022-10-27T10:04:03.804Z,123.45
2022-10-27T10:13:59.879Z,109.45
2022-10-27T10:19:02.230Z,111.78
2022-10-27T10:23:58.602Z,106.28
2022-10-27T10:29:08.559Z,98.72
2022-10-27T10:34:06.289Z,95.38
2022-10-27T10:39:03.608Z,92.57
2022-10-27T10:44:16.365Z,94.63
2022-10-27T10:49:18.144Z,90.88
2022-10-27T10:54:18.881Z,95.97
2022-10-27T10:59:20.120Z,90.30
2022-10-27T11:04:21.582Z,94.93
2022-10-27T11:09:17.899Z,90.90
2022-10-27T11:14:15.523Z,87.18
2022-10-27T11:19:15.227Z,86.60
2022-10-27T11:24:31.480Z,86.15
2022-10-27T11:29:32.818Z,92.20
2022-10-27T11:34:40.930Z,94.10
2022-10-27T11:39:46.591Z,94.38
2022-10-27T11:44:58.072Z,93.53
2022-10-27T11:49:54.291Z,95.38
2022-10-27T11:54:50.793Z,81.50
2022-10-27T11:59:53.743Z,84.40
2022-10-27T12:05:08.228Z,79.10
2022-10-27T12:10:11.888Z,67.22
2022-10-27T12:15:14.237Z,60.47
2022-10-27T12:20:13.519Z,58.28
2022-10-27T12:25:39.225Z,57.80
2022-10-27T12:30:37.662Z,58.13
2022-10-27T12:35:43.259Z,62.22
2022-10-27T12:40:42.212Z,59.63
2022-10-27T12:45:41.422Z,52.55
2022-10-27T12:50:56.215Z,51.28
2022-10-27T12:55:57.248Z,45.53
2022-10-27T13:00:59.278Z,44.17
2022-10-27T13:06:07.513Z,42.58
2022-10-27T13:11:14.941Z,41.88
2022-10-27T13:16:11.155Z,45.40
2022-10-27T13:21:27.639Z,41.05
2022-10-27T13:26:32.934Z,40.72
2022-10-27T13:31:29.138Z,38.92
2022-10-27T13:36:27.895Z,38.65
2022-10-27T13:41:43.102Z,31.00
2022-10-27T13:46:57.870Z,28.15
2022-10-27T13:52:10.216Z,19.30
2022-10-27T13:57:24.612Z,17.60
2022-10-27T14:02:26.485Z,18.42
2022-10-27T14:07:22.920Z,20.27
2022-10-27T14:12:19.222Z,21.02
2022-10-27T14:17:20.730Z,20.15
2022-10-27T14:22:28.717Z,22.30
2022-10-27T14:27:24.956Z,23.88
2022-10-27T14:32:22.668Z,24.77
2022-10-27T14:37:32.742Z,27.27
2022-10-27T14:42:32.442Z,28.05
2022-10-27T14:47:29.450Z,33.10
2022-10-27T14:52:41.401Z,36.55
2022-10-27T14:57:40.179Z,39.55
2022-10-27T15:02:36.893Z,39.78
2022-10-27T15:07:34.322Z,43.80
2022-10-27T15:12:31.474Z,44.72
2022-10-27T15:17:37.162Z,48.72
2022-10-27T15:22:34.074Z,51.35
2022-10-27T15:27:38.141Z,51.58
2022-10-27T15:32:38.812Z,55.75
2022-10-27T15:37:35.282Z,61.35
2022-10-27T15:42:36.993Z,72.68
2022-10-27T15:47:38.823Z,83.05
2022-10-27T15:52:35.029Z,80.33
2022-10-27T15:57:31.332Z,85.75
2022-10-27T16:02:27.521Z,92.18
2022-10-27T16:07:23.779Z,94.68
2022-10-27T16:12:34.242Z,92.50
2022-10-27T16:17:39.391Z,99.03
2022-10-27T16:22:35.590Z,96.55
2022-10-27T16:27:33.675Z,103.43
2022-10-27T16:32:30.252Z,101.50
2022-10-27T16:37:27.606Z,105.72
2022-10-27T16:42:24.844Z,113.22
2022-10-27T16:47:21.154Z,111.93
2022-10-27T16:52:17.351Z,116.20
2022-10-27T16:57:14.202Z,111.10
2022-10-27T17:02:11.848Z,112.45
2022-10-27T17:07:08.383Z,114.15
2022-10-27T17:12:04.742Z,109.78
2022-10-27T17:17:00.935Z,119.05
2022-10-27T17:21:57.196Z,118.57
2022-10-27T17:26:53.424Z,123.80
2022-10-27T17:31:49.722Z,126.25
2022-10-27T17:36:47.142Z,127.88
2022-10-27T17:41:43.439Z,126.85
2022-10-27T17:46:39.702Z,126.15
2022-10-27T17:51:36.015Z,127.38
2022-10-27T17:56:33.588Z,121.90
2022-10-27T18:01:31.063Z,123.30
2022-10-27T18:06:27.829Z,122.82
2022-10-27T18:11:25.385Z,126.45
2022-10-27T18:16:23.963Z,120.28
2022-10-27T18:21:20.953Z,114.97
2022-10-27T18:26:17.358Z,113.68
2022-10-27T18:31:14.409Z,114.80
2022-10-27T18:36:11.932Z,107.93
2022-10-27T18:41:09.838Z,103.20
2022-10-27T18:46:07.383Z,103.43
2022-10-27T18:51:05.451Z,113.57
2022-10-27T18:56:02.852Z,116.25
2022-10-27T19:01:03.175Z,118.63
2022-10-27T19:06:00.263Z,114.30
2022-10-27T19:11:01.609Z,106.85
2022-10-27T19:16:05.049Z,113.03
2022-10-27T19:21:03.016Z,113.95
2022-10-27T19:26:04.130Z,113.30
2022-10-27T19:31:00.606Z,116.00
2022-10-27T19:36:02.203Z,114.88
2022-10-27T19:40:58.703Z,115.77
2022-10-27T19:45:54.927Z,117.95
2022-10-27T19:50:51.115Z,120.95
2022-10-27T19:55:47.323Z,122.20
2022-10-27T20:00:43.627Z,122.03
2022-10-27T20:05:39.839Z,126.00
2022-10-27T20:10:39.099Z,122.18
2022-10-27T20:15:35.288Z,126.03
2022-10-27T20:20:31.532Z,129.30
2022-10-27T20:25:27.782Z,128.90
2022-10-27T20:30:23.985Z,127.88
2022-10-27T20:35:20.333Z,126.55
2022-10-27T20:40:16.578Z,132.75
2022-10-27T20:45:12.879Z,131.32
2022-10-27T20:50:09.962Z,132.63
2022-10-27T20:55:06.478Z,130.48
2022-10-27T21:00:02.850Z,132.00
2022-10-27T21:04:59.044Z,127.95
2022-10-27T21:09:55.231Z,133.30
2022-10-27T21:14:51.447Z,130.95
2022-10-27T21:19:47.736Z,127.18
2022-10-27T21:24:44.094Z,129.20
2022-10-27T21:29:40.300Z,132.50
2022-10-27T21:34:36.589Z,131.93
2022-10-27T21:39:32.775Z,131.57
2022-10-27T21:44:29.084Z,129.75
2022-10-27T21:49:25.350Z,130.65
2022-10-27T21:54:21.609Z,127.53
2022-10-27T21:59:17.814Z,124.50
2022-10-27T22:04:14.079Z,132.07
2022-10-27T22:09:10.416Z,129.32
2022-10-27T22:14:06.772Z,129.75
2022-10-27T22:19:04.482Z,130.35
2022-10-27T22:24:00.815Z,131.30
2022-10-27T22:28:57.079Z,135.00
2022-10-27T22:33:54.171Z,135.10
2022-10-27T22:38:58.050Z,135.15
2022-10-27T22:43:56.185Z,135.13
2022-10-27T22:48:52.724Z,138.45
2022-10-27T22:53:49.334Z,138.02
2022-10-27T22:58:46.924Z,137.95
2022-10-27T23:03:43.204Z,138.18
2022-10-27T23:08:39.392Z,136.80
2022-10-27T23:13:36.386Z,138.50
2022-10-27T23:18:33.689Z,140.13
2022-10-27T23:23:30.656Z,136.27
2022-10-27T23:28:27.266Z,136.90
2022-10-27T23:33:23.608Z,134.57
2022-10-27T23:38:19.831Z,129.60
2022-10-27T23:43:16.195Z,129.75
2022-10-27T23:48:12.570Z,129.30
2022-10-27T23:53:08.766Z,130.98
2022-10-27T23:58:04.972Z,128.43
